createdAt,value
2023-05-12T00:03:41.407Z,69.11
2023-05-12T00:06:10.168Z,68.52
2023-05-12T00:08:38.530Z,68.33
2023-05-12T00:11:07.180Z,68.90
2023-05-12T00:13:35.497Z,69.80
2023-05-12T00:16:04.246Z,70.23
2023-05-12T00:18:32.607Z,70.01
2023-05-12T00:21:00.757Z,70.21
2023-05-12T00:23:28.975Z,70.48
2023-05-12T00:25:57.069Z,70.67
2023-05-12T00:28:25.054Z,70.49
2023-05-12T00:30:53.160Z,70.70
2023-05-12T00:33:21.236Z,70.75
2023-05-12T00:35:49.400Z,71.04
2023-05-12T00:38:17.583Z,71.26
2023-05-12T00:40:45.877Z,71.41
2023-05-12T00:43:14.677Z,71.55
2023-05-12T00:45:44.015Z,71.39
2023-05-12T00:48:12.540Z,71.18
2023-05-12T00:50:40.704Z,71.06
2023-05-12T00:53:10.079Z,70.99
2023-05-12T00:55:38.242Z,70.78
2023-05-12T00:58:06.452Z,70.77
2023-05-12T01:00:34.806Z,70.52
2023-05-12T01:03:04.610Z,70.45
2023-05-12T01:05:59.012Z,70.04
2023-05-12T01:08:27.558Z,69.47
2023-05-12T01:10:55.676Z,69.32
2023-05-12T01:13:23.928Z,69.22
2023-05-12T01:15:54.060Z,69.37
2023-05-12T01:18:24.520Z,69.49
2023-05-12T01:20:55.348Z,69.53
2023-05-12T01:23:32.059Z,69.71
2023-05-12T01:26:07.116Z,69.69
2023-05-12T01:28:37.175Z,69.78
2023-05-12T01:31:07.557Z,69.85
2023-05-12T01:33:36.924Z,69.94
2023-05-12T01:36:05.405Z,70.11
2023-05-12T01:38:33.575Z,70.27
2023-05-12T01:41:01.577Z,70.30
2023-05-12T01:43:29.712Z,70.39
2023-05-12T01:45:58.248Z,70.47
2023-05-12T01:48:26.506Z,69.96
2023-05-12T01:50:54.641Z,69.69
2023-05-12T01:53:23.212Z,69.87
2023-05-12T01:55:51.830Z,70.21
2023-05-12T01:58:20.003Z,70.31
2023-05-12T02:00:48.362Z,70.69
2023-05-12T02:03:17.125Z,70.89
2023-05-12T02:05:45.425Z,70.89
2023-05-12T02:08:13.490Z,70.67
2023-05-12T02:10:41.595Z,70.78
2023-05-12T02:13:10.316Z,70.81
2023-05-12T02:15:38.575Z,70.92
2023-05-12T02:18:07.263Z,71.02
2023-05-12T02:20:35.647Z,71.12
2023-05-12T02:23:03.684Z,71.17
2023-05-12T02:25:31.837Z,71.10
2023-05-12T02:27:59.882Z,71.00
2023-05-12T02:30:27.970Z,70.92
2023-05-12T02:32:56.227Z,70.96
2023-05-12T02:35:25.382Z,70.82
2023-05-12T02:37:54.242Z,70.57
2023-05-12T02:40:22.410Z,70.57
2023-05-12T02:42:50.920Z,70.55
2023-05-12T02:45:19.122Z,70.60
2023-05-12T02:47:47.544Z,70.65
2023-05-12T02:50:15.781Z,70.55
2023-05-12T02:52:43.906Z,70.45
2023-05-12T02:55:12.179Z,70.37
2023-05-12T02:57:41.138Z,70.31
2023-05-12T03:00:09.662Z,70.33
2023-05-12T03:02:39.164Z,70.31
2023-05-12T03:05:08.742Z,70.39
2023-05-12T03:07:36.837Z,70.42
2023-05-12T03:10:05.802Z,70.29
2023-05-12T03:12:34.909Z,70.36
2023-05-12T03:15:03.942Z,70.45
2023-05-12T03:17:32.339Z,70.49
2023-05-12T03:20:00.483Z,70.56
2023-05-12T03:22:29.390Z,70.75
2023-05-12T03:24:57.631Z,70.75
2023-05-12T03:27:26.285Z,70.78
2023-05-12T03:29:54.345Z,71.12
2023-05-12T03:32:22.480Z,70.96
2023-05-12T03:34:51.028Z,70.99
2023-05-12T03:37:19.166Z,71.08
2023-05-12T03:39:47.289Z,71.26
2023-05-12T03:42:15.954Z,71.21
2023-05-12T03:44:44.540Z,71.33
2023-05-12T03:47:13.301Z,71.35
2023-05-12T03:49:41.791Z,71.47
2023-05-12T03:52:10.038Z,71.59
2023-05-12T03:54:38.715Z,71.60
2023-05-12T03:57:07.120Z,71.50
2023-05-12T03:59:35.213Z,71.57
2023-05-12T04:02:03.473Z,71.66
2023-05-12T04:04:32.479Z,71.70
2023-05-12T04:07:00.530Z,71.58
2023-05-12T04:09:31.548Z,71.31
2023-05-12T04:12:00.266Z,70.58
2023-05-12T04:14:39.045Z,70.47
2023-05-12T04:17:10.985Z,69.93
2023-05-12T04:19:39.020Z,69.79
2023-05-12T04:22:08.482Z,68.11
2023-05-12T04:24:37.716Z,68.74
2023-05-12T04:27:06.985Z,68.72
2023-05-12T04:29:35.370Z,68.02
2023-05-12T04:32:04.129Z,68.30
2023-05-12T04:34:32.344Z,68.20
2023-05-12T04:37:00.502Z,68.16
2023-05-12T04:39:29.169Z,67.92
2023-05-12T04:41:57.724Z,68.08
2023-05-12T04:44:26.146Z,68.04
2023-05-12T04:46:54.345Z,67.58
2023-05-12T04:49:22.795Z,66.96
2023-05-12T04:51:50.789Z,67.85
2023-05-12T04:54:18.857Z,67.84
2023-05-12T04:56:46.920Z,67.05
2023-05-12T04:59:15.100Z,67.00
2023-05-12T05:01:43.736Z,66.06
2023-05-12T05:04:13.063Z,62.97
2023-05-12T05:06:41.355Z,63.77
2023-05-12T05:09:09.534Z,65.00
2023-05-12T05:11:37.806Z,64.98
2023-05-12T05:14:05.904Z,64.66
2023-05-12T05:16:34.026Z,64.48
2023-05-12T05:19:06.482Z,65.10
2023-05-12T05:21:37.314Z,65.09
2023-05-12T05:24:09.068Z,65.02
2023-05-12T05:26:37.253Z,65.27
2023-05-12T05:29:05.317Z,64.89
2023-05-12T05:31:33.859Z,65.27
2023-05-12T05:34:02.189Z,65.57
2023-05-12T05:36:31.564Z,65.99
2023-05-12T05:39:00.197Z,65.74
2023-05-12T05:41:28.372Z,65.52
2023-05-12T05:43:56.658Z,65.40
2023-05-12T05:46:25.088Z,65.93
2023-05-12T05:48:53.795Z,66.00
2023-05-12T05:51:21.956Z,65.48
2023-05-12T05:53:50.371Z,65.00
2023-05-12T05:56:18.493Z,64.38
2023-05-12T05:58:46.951Z,65.46
2023-05-12T06:01:15.540Z,65.59
2023-05-12T06:03:43.850Z,65.61
2023-05-12T06:06:12.258Z,65.22
2023-05-12T06:08:40.386Z,65.24
2023-05-12T06:11:08.456Z,64.31
2023-05-12T06:13:36.844Z,64.37
2023-05-12T06:16:05.923Z,64.89
2023-05-12T06:18:34.035Z,65.04
2023-05-12T06:21:02.989Z,64.28
2023-05-12T06:23:31.626Z,64.08
2023-05-12T06:25:59.994Z,64.05
2023-05-12T06:28:28.139Z,63.84
2023-05-12T06:30:56.728Z,64.41
2023-05-12T06:33:24.966Z,65.19
2023-05-12T06:35:53.197Z,65.82
2023-05-12T06:38:21.370Z,66.47
2023-05-12T06:40:49.406Z,67.08
2023-05-12T06:43:17.473Z,67.49
2023-05-12T06:45:45.804Z,67.76
2023-05-12T06:48:14.426Z,67.55
2023-05-12T06:50:42.531Z,67.52
2023-05-12T06:53:11.862Z,67.33
2023-05-12T06:55:40.297Z,66.95
2023-05-12T06:58:08.354Z,67.14
2023-05-12T07:00:36.890Z,67.12
2023-05-12T07:03:05.360Z,66.89
2023-05-12T07:05:34.869Z,66.95
2023-05-12T07:08:06.619Z,66.87
2023-05-12T07:10:34.802Z,67.15
2023-05-12T07:13:03.473Z,67.73
2023-05-12T07:15:32.969Z,68.08
2023-05-12T07:18:01.883Z,68.27
2023-05-12T07:20:30.705Z,67.58
2023-05-12T07:22:58.911Z,66.36
2023-05-12T07:25:27.146Z,64.45
2023-05-12T07:27:55.628Z,62.97
2023-05-12T07:30:23.805Z,62.32
2023-05-12T07:32:51.950Z,61.97
2023-05-12T07:35:20.301Z,61.32
2023-05-12T07:37:49.318Z,61.78
2023-05-12T07:40:17.949Z,60.00
2023-05-12T07:42:46.051Z,58.89
2023-05-12T07:45:14.352Z,54.71
2023-05-12T07:47:43.342Z,53.04
2023-05-12T07:50:11.904Z,52.89
2023-05-12T07:52:47.445Z,53.22
2023-05-12T07:55:16.929Z,53.94
2023-05-12T07:57:45.638Z,53.33
2023-05-12T08:00:14.323Z,51.68
2023-05-12T08:02:43.247Z,50.34
2023-05-12T08:05:11.920Z,49.79
2023-05-12T08:07:41.169Z,50.91
2023-05-12T08:12:57.404Z,51.00
2023-05-12T08:15:25.575Z,50.80
2023-05-12T08:17:53.917Z,50.68
2023-05-12T08:20:22.148Z,49.86
2023-05-12T08:22:50.299Z,49.90
2023-05-12T08:25:18.774Z,49.89
2023-05-12T08:27:47.268Z,50.25
2023-05-12T08:30:15.482Z,50.83
2023-05-12T08:32:44.894Z,50.67
2023-05-12T08:35:13.137Z,50.21
2023-05-12T08:37:41.297Z,50.16
2023-05-12T08:40:16.042Z,51.62
2023-05-12T08:42:49.538Z,52.07
2023-05-12T08:45:19.202Z,52.07
2023-05-12T08:47:47.570Z,51.58
2023-05-12T08:50:18.085Z,51.54
2023-05-12T08:52:46.671Z,51.67
2023-05-12T08:55:15.524Z,50.81
2023-05-12T08:57:45.233Z,47.92
2023-05-12T09:00:15.827Z,47.80
2023-05-12T09:02:52.831Z,48.07
2023-05-12T09:05:25.937Z,48.07
2023-05-12T09:07:54.842Z,47.24
2023-05-12T09:13:03.864Z,46.91
2023-05-12T09:15:38.677Z,47.69
2023-05-12T09:18:07.687Z,47.35
2023-05-12T09:20:36.879Z,47.41
2023-05-12T09:23:21.620Z,46.99
2023-05-12T09:26:00.268Z,46.09
2023-05-12T09:28:39.020Z,46.36
2023-05-12T09:31:21.698Z,47.49
2023-05-12T09:33:52.208Z,46.60
2023-05-12T09:36:24.635Z,46.48
2023-05-12T09:39:03.525Z,46.41
2023-05-12T09:41:35.655Z,46.85
2023-05-12T09:44:04.608Z,47.13
2023-05-12T09:46:32.854Z,48.17
2023-05-12T09:49:01.727Z,48.03
2023-05-12T09:51:30.301Z,48.44
2023-05-12T09:53:58.722Z,48.54
2023-05-12T09:56:30.968Z,47.87
2023-05-12T09:58:59.374Z,47.95
2023-05-12T10:01:27.546Z,47.81
2023-05-12T10:03:57.915Z,48.00
2023-05-12T10:06:32.167Z,48.47
2023-05-12T10:09:12.175Z,49.12
2023-05-12T10:11:41.333Z,49.40
2023-05-12T10:14:10.596Z,49.78
2023-05-12T10:16:43.930Z,49.79
2023-05-12T10:19:18.806Z,48.40
2023-05-12T10:21:52.377Z,48.03
2023-05-12T10:24:22.002Z,47.89
2023-05-12T10:26:51.104Z,47.13
2023-05-12T10:29:25.484Z,47.24
2023-05-12T10:31:57.970Z,47.20
2023-05-12T10:34:48.576Z,46.87
2023-05-12T10:37:16.813Z,47.15
2023-05-12T10:39:53.039Z,47.69
2023-05-12T10:42:22.632Z,47.29
2023-05-12T10:44:55.820Z,47.41
2023-05-12T10:47:36.690Z,47.33
2023-05-12T10:50:05.982Z,46.62
2023-05-12T10:52:34.202Z,46.67
2023-05-12T10:55:04.386Z,46.21
2023-05-12T10:57:33.985Z,46.18
2023-05-12T11:00:04.385Z,46.18
2023-05-12T11:02:34.692Z,46.09
2023-05-12T11:05:11.181Z,46.53
2023-05-12T11:07:39.905Z,46.36
2023-05-12T11:10:08.930Z,46.14
2023-05-12T11:12:37.617Z,46.16
2023-05-12T11:15:07.314Z,45.47
2023-05-12T11:17:42.116Z,45.49
2023-05-12T11:20:22.636Z,45.80
2023-05-12T11:22:51.872Z,46.05
2023-05-12T11:25:20.534Z,46.19
2023-05-12T11:27:53.140Z,45.95
2023-05-12T11:30:23.133Z,46.48
2023-05-12T11:33:03.528Z,46.57
2023-05-12T11:35:32.225Z,45.73
2023-05-12T11:38:01.805Z,45.12
2023-05-12T11:40:30.598Z,44.50
2023-05-12T11:43:10.297Z,44.71
2023-05-12T11:45:38.688Z,44.60
2023-05-12T11:48:17.223Z,44.34
2023-05-12T11:50:46.351Z,42.88
2023-05-12T11:53:17.355Z,42.95
2023-05-12T11:55:53.850Z,43.40
2023-05-12T11:58:24.824Z,43.83
2023-05-12T12:00:54.285Z,44.26
2023-05-12T12:03:23.624Z,45.29
2023-05-12T12:06:03.582Z,45.52
2023-05-12T12:08:32.385Z,45.29
2023-05-12T12:11:03.627Z,46.68
2023-05-12T12:13:32.221Z,47.44
2023-05-12T12:16:00.392Z,47.56
2023-05-12T12:18:28.593Z,48.26
2023-05-12T12:20:57.166Z,48.16
2023-05-12T12:23:26.251Z,48.60
2023-05-12T12:25:54.348Z,49.10
2023-05-12T12:28:22.665Z,48.56
2023-05-12T12:30:51.336Z,48.75
2023-05-12T12:33:20.698Z,48.67
2023-05-12T12:35:49.254Z,48.04
2023-05-12T12:38:17.445Z,47.93
2023-05-12T12:40:45.663Z,47.94
2023-05-12T12:43:13.888Z,48.50
2023-05-12T12:45:41.897Z,48.75
2023-05-12T12:48:10.342Z,48.43
2023-05-12T12:50:38.568Z,47.66
2023-05-12T12:53:06.632Z,47.59
2023-05-12T12:55:36.600Z,47.91
2023-05-12T12:58:04.802Z,47.76
2023-05-12T13:00:32.905Z,48.34
2023-05-12T13:03:01.391Z,48.26
2023-05-12T13:05:29.799Z,48.30
2023-05-12T13:07:58.015Z,48.24
2023-05-12T13:10:26.366Z,48.26
2023-05-12T13:12:55.366Z,48.87
2023-05-12T13:15:23.847Z,49.54
2023-05-12T13:17:53.055Z,49.73
2023-05-12T13:20:22.009Z,48.79
2023-05-12T13:22:50.610Z,49.84
2023-05-12T13:25:18.830Z,51.08
2023-05-12T13:27:47.385Z,51.56
2023-05-12T13:30:16.495Z,50.54
2023-05-12T13:32:44.883Z,49.54
2023-05-12T13:35:13.596Z,49.51
2023-05-12T13:37:41.898Z,49.46
2023-05-12T13:40:10.345Z,50.09
2023-05-12T13:42:38.519Z,49.96
2023-05-12T13:45:08.035Z,49.17
2023-05-12T13:47:36.140Z,50.04
2023-05-12T13:50:05.617Z,50.25
2023-05-12T13:52:33.728Z,51.24
2023-05-12T13:55:01.884Z,52.33
2023-05-12T13:57:30.034Z,53.32
2023-05-12T13:59:58.582Z,53.32
2023-05-12T14:02:26.609Z,52.51
2023-05-12T14:04:55.873Z,51.46
2023-05-12T14:07:24.961Z,51.36
2023-05-12T14:09:53.163Z,50.58
2023-05-12T14:12:21.897Z,50.22
2023-05-12T14:14:50.062Z,49.96
2023-05-12T14:17:18.704Z,50.47
2023-05-12T14:19:46.906Z,50.70
2023-05-12T14:22:25.438Z,51.52
2023-05-12T14:24:54.570Z,52.02
2023-05-12T14:27:22.717Z,52.63
2023-05-12T14:29:50.956Z,53.49
2023-05-12T14:32:19.234Z,53.59
2023-05-12T14:34:47.587Z,54.72
2023-05-12T14:37:16.276Z,55.73
2023-05-12T14:39:44.910Z,56.27
2023-05-12T14:42:13.508Z,57.71
2023-05-12T14:44:42.192Z,59.62
2023-05-12T14:47:10.920Z,64.27
2023-05-12T14:49:39.161Z,69.74
2023-05-12T14:52:07.179Z,71.88
2023-05-12T14:54:36.948Z,74.72
2023-05-12T14:57:05.805Z,75.31
2023-05-12T14:59:34.426Z,76.56
2023-05-12T15:02:03.116Z,74.66
2023-05-12T15:04:31.496Z,79.35
2023-05-12T15:07:00.157Z,77.67
2023-05-12T15:09:28.293Z,81.38
2023-05-12T15:11:57.890Z,84.25
2023-05-12T15:14:26.338Z,84.03
2023-05-12T15:16:56.769Z,85.11
2023-05-12T15:19:26.650Z,84.94
2023-05-12T15:21:55.969Z,84.44
2023-05-12T15:24:26.857Z,83.96
2023-05-12T15:26:56.035Z,86.30
2023-05-12T15:29:24.262Z,88.18
2023-05-12T15:31:53.651Z,89.36
2023-05-12T15:34:23.965Z,90.06
2023-05-12T15:36:53.057Z,90.55
2023-05-12T15:39:23.488Z,89.88
2023-05-12T15:41:52.390Z,89.94
2023-05-12T15:44:22.136Z,90.22
2023-05-12T15:46:50.950Z,90.35
2023-05-12T15:49:20.928Z,89.43
2023-05-12T15:51:49.192Z,88.95
2023-05-12T15:54:17.950Z,89.67
2023-05-12T15:56:48.877Z,90.35
2023-05-12T15:59:18.091Z,88.06
2023-05-12T16:01:47.378Z,87.60
2023-05-12T16:04:15.693Z,88.44
2023-05-12T16:06:44.979Z,89.36
2023-05-12T16:09:13.545Z,89.92
2023-05-12T16:15:15.285Z,90.57
2023-05-12T16:17:43.606Z,91.06
2023-05-12T16:20:14.535Z,91.46
2023-05-12T16:22:43.793Z,91.84
2023-05-12T16:25:12.493Z,91.71
2023-05-12T16:27:40.861Z,91.95
2023-05-12T16:30:10.729Z,91.88
2023-05-12T16:32:39.320Z,91.59
2023-05-12T16:35:10.160Z,91.91
2023-05-12T16:37:38.793Z,91.82
2023-05-12T16:40:08.466Z,91.97
2023-05-12T16:42:37.700Z,91.71
2023-05-12T16:45:08.263Z,91.85
2023-05-12T16:47:37.752Z,91.62
2023-05-12T16:50:07.647Z,91.52
2023-05-12T16:52:36.206Z,91.19
2023-05-12T16:55:05.834Z,91.53
2023-05-12T16:57:35.695Z,91.41
2023-05-12T17:00:06.174Z,91.22
2023-05-12T17:02:35.299Z,90.96
2023-05-12T17:05:05.476Z,91.12
2023-05-12T17:07:34.682Z,91.26
2023-05-12T17:10:03.132Z,90.89
2023-05-12T17:12:32.189Z,90.88
2023-05-12T17:15:08.036Z,91.23
2023-05-12T17:17:51.543Z,90.75
2023-05-12T17:20:20.709Z,91.20
2023-05-12T17:22:49.988Z,91.45
2023-05-12T17:25:19.920Z,91.46
2023-05-12T17:27:48.678Z,91.50
2023-05-12T17:30:17.804Z,91.66
2023-05-12T17:32:45.953Z,91.58
2023-05-12T17:35:14.637Z,91.61
2023-05-12T17:37:42.929Z,91.61
2023-05-12T17:40:16.086Z,91.69
2023-05-12T17:42:45.065Z,91.54
2023-05-12T17:45:13.775Z,91.24
2023-05-12T17:47:44.632Z,90.92
2023-05-12T17:50:13.695Z,90.84
2023-05-12T17:52:43.128Z,91.32
2023-05-12T17:55:11.475Z,91.33
2023-05-12T17:57:39.486Z,91.15
2023-05-12T18:00:08.188Z,90.86
2023-05-12T18:02:39.545Z,91.08
2023-05-12T18:05:08.762Z,91.48
2023-05-12T18:07:38.101Z,91.73
2023-05-12T18:10:11.188Z,91.50
2023-05-12T18:12:40.124Z,91.37
2023-05-12T18:15:08.935Z,91.10
2023-05-12T18:17:37.315Z,91.30
2023-05-12T18:20:06.786Z,91.26
2023-05-12T18:22:35.127Z,91.02
2023-05-12T18:25:03.188Z,90.28
2023-05-12T18:27:31.223Z,90.50
2023-05-12T18:29:59.443Z,90.78
2023-05-12T18:32:27.644Z,90.90
2023-05-12T18:34:56.020Z,90.65
2023-05-12T18:37:24.027Z,91.03
2023-05-12T18:39:52.421Z,90.85
2023-05-12T18:42:20.481Z,90.94
2023-05-12T18:44:48.618Z,91.48
2023-05-12T18:47:16.667Z,91.88
2023-05-12T18:49:45.187Z,91.76
2023-05-12T18:52:13.173Z,91.89
2023-05-12T18:54:41.205Z,91.55
2023-05-12T18:57:09.869Z,91.35
2023-05-12T18:59:37.856Z,91.37
2023-05-12T19:02:07.129Z,91.49
2023-05-12T19:04:35.606Z,91.03
2023-05-12T19:07:04.281Z,90.98
2023-05-12T19:09:33.205Z,91.14
2023-05-12T19:12:02.222Z,90.83
2023-05-12T19:14:30.252Z,90.62
2023-05-12T19:16:58.450Z,89.45
2023-05-12T19:19:27.049Z,89.00
2023-05-12T19:21:55.268Z,90.05
2023-05-12T19:24:25.959Z,90.85
2023-05-12T19:26:54.811Z,91.16
2023-05-12T19:29:23.492Z,91.35
2023-05-12T19:31:52.810Z,90.92
2023-05-12T19:34:21.353Z,90.22
2023-05-12T19:36:52.026Z,90.26
2023-05-12T19:39:20.126Z,90.21
2023-05-12T19:41:48.588Z,89.00
2023-05-12T19:44:17.556Z,88.44
2023-05-12T19:46:46.699Z,88.72
2023-05-12T19:49:15.440Z,89.68
2023-05-12T19:51:44.626Z,90.02
2023-05-12T19:54:12.784Z,90.40
2023-05-12T19:56:40.788Z,90.35
2023-05-12T19:59:11.105Z,90.21
2023-05-12T20:01:39.769Z,90.95
2023-05-12T20:04:08.081Z,91.58
2023-05-12T20:06:37.106Z,92.00
2023-05-12T20:09:05.220Z,92.27
2023-05-12T20:11:34.400Z,92.43
2023-05-12T20:14:05.344Z,92.53
2023-05-12T20:16:33.620Z,92.22
2023-05-12T20:19:02.995Z,92.28
2023-05-12T20:21:31.709Z,92.42
2023-05-12T20:23:59.812Z,92.49
2023-05-12T20:26:28.340Z,91.89
2023-05-12T20:28:58.723Z,92.18
2023-05-12T20:31:27.249Z,92.49
2023-05-12T20:33:56.721Z,92.33
2023-05-12T20:36:25.512Z,92.33
2023-05-12T20:38:53.447Z,92.32
2023-05-12T20:41:22.775Z,92.01
2023-05-12T20:43:50.905Z,92.11
2023-05-12T20:46:20.462Z,92.00
2023-05-12T20:48:50.172Z,92.20
2023-05-12T20:51:18.322Z,92.42
2023-05-12T20:53:46.380Z,92.57
2023-05-12T20:56:15.125Z,92.71
2023-05-12T20:58:44.239Z,92.62
2023-05-12T21:01:12.248Z,92.35
2023-05-12T21:03:40.339Z,92.35
2023-05-12T21:06:09.018Z,92.09
2023-05-12T21:08:37.723Z,92.32
2023-05-12T21:11:18.799Z,92.49
2023-05-12T21:13:48.642Z,92.54
2023-05-12T21:16:17.459Z,92.58
2023-05-12T21:18:46.541Z,92.45
2023-05-12T21:21:15.094Z,92.12
2023-05-12T21:23:43.186Z,91.96
2023-05-12T21:26:11.665Z,92.02
2023-05-12T21:28:39.848Z,92.23
2023-05-12T21:31:07.908Z,92.44
2023-05-12T21:33:35.983Z,92.26
2023-05-12T21:36:04.624Z,92.21
2023-05-12T21:38:32.838Z,91.78
2023-05-12T21:41:00.939Z,91.43
2023-05-12T21:43:29.374Z,91.87
2023-05-12T21:46:02.198Z,91.61
2023-05-12T21:48:32.461Z,91.31
2023-05-12T21:51:02.161Z,91.49
2023-05-12T21:53:30.392Z,91.79
2023-05-12T21:55:58.409Z,91.79
2023-05-12T21:58:27.889Z,91.87
2023-05-12T22:00:56.179Z,91.93
2023-05-12T22:03:24.628Z,92.04
2023-05-12T22:05:52.754Z,91.82
2023-05-12T22:08:20.741Z,91.94
2023-05-12T22:10:49.249Z,91.89
2023-05-12T22:13:17.890Z,92.03
2023-05-12T22:15:45.967Z,91.84
2023-05-12T22:18:14.118Z,91.56
2023-05-12T22:20:42.506Z,91.61
2023-05-12T22:23:10.656Z,91.46
2023-05-12T22:25:38.859Z,91.68
2023-05-12T22:28:07.324Z,91.87
2023-05-12T22:30:35.565Z,91.17
2023-05-12T22:33:03.606Z,90.90
2023-05-12T22:35:31.958Z,90.60
2023-05-12T22:38:00.460Z,90.74
2023-05-12T22:40:28.624Z,90.85
2023-05-12T22:42:56.925Z,90.43
2023-05-12T22:45:25.006Z,90.66
2023-05-12T22:47:53.540Z,90.82
2023-05-12T22:50:23.522Z,90.49
2023-05-12T22:52:51.898Z,90.53
2023-05-12T22:55:20.181Z,90.77
2023-05-12T22:57:48.244Z,90.40
2023-05-12T23:00:16.468Z,89.50
2023-05-12T23:02:44.852Z,89.82
2023-05-12T23:05:12.985Z,90.50
2023-05-12T23:07:40.952Z,90.86
2023-05-12T23:10:09.473Z,90.64
2023-05-12T23:12:37.945Z,90.96
2023-05-12T23:15:06.917Z,91.04
2023-05-12T23:17:35.118Z,91.25
2023-05-12T23:20:05.029Z,91.13
2023-05-12T23:22:33.043Z,91.08
2023-05-12T23:25:01.347Z,91.09
2023-05-12T23:27:29.732Z,90.66
2023-05-12T23:29:57.907Z,90.53
2023-05-12T23:32:26.110Z,90.59
2023-05-12T23:34:54.938Z,90.51
2023-05-12T23:37:22.977Z,90.39
2023-05-12T23:39:51.305Z,90.25
2023-05-12T23:42:19.963Z,90.03
2023-05-12T23:44:47.984Z,90.15
2023-05-12T23:47:16.193Z,89.90
2023-05-12T23:49:44.791Z,90.06
2023-05-12T23:52:12.796Z,90.17
2023-05-12T23:54:40.835Z,90.37
2023-05-12T23:57:09.452Z,90.38
2023-05-12T23:59:37.620Z,90.32
